• Join FlightAware (Why Join?)
  • Login
  • US Flag 
04:46AM EDT


 

Airport Tracker/Info


-or-


 

Live Flight TrackerFlight Track Log ✈ ASQ5958 ✈ 01-Jul-2013 ✈ KDTW - KORD

Flight Track Log - Related Links

Times and Time Zones

All times are in EDT time to prevent confusion due to time zone crossing. See the ASQ5958 flight status page for this flight to view local times or setup timezone preferences in your user account.

Time Position Orientation Groundspeed Altitude Reporting Facility
EDT Latitude Longitude Course Direction KTS MPH feet Rate Location/Type
08:29AM 42.2314 -83.3342 292° West 159 183 1,300  Level Cleveland Center
08:31AM 42.3131 -83.3181 North 243 280 4,000 2,160 Climbing Cleveland Center
08:32AM 42.2838 -83.6360 283° West  Level FlightAware Approximate
08:32AM 42.3731 -83.3375 347° North 272 313 6,600  Level Cleveland Center
08:33AM 42.3005 -83.7361 285° West  Level FlightAware Approximate
08:33AM 42.3828 -83.4478 277° West 287 330 9,300  Level Cleveland Center
08:34AM 42.3220 -83.8344 292° West  Level FlightAware Approximate
08:34AM 42.3933 -83.6056 275° West 337 388 10,000  Level Cleveland Center
08:35AM 42.3506 -83.9295 292° West  Level FlightAware Approximate
08:35AM 42.3989 -83.7156 274° West 330 380 10,000  Level Cleveland Center
08:36AM 42.4061 -83.8311 275° West 315 362 11,600 1,380 Climbing Cleveland Center
08:37AM 42.4128 -83.9525 274° West 315 362 12,800 780 Climbing Cleveland Center
08:38AM 42.4194 -84.0822 274° West 330 380 13,200 900 Climbing Cleveland Center
08:39AM 42.4258 -84.2178 274° West 352 405 14,700 1,440 Climbing Cleveland Center
08:40AM 42.4297 -84.3531 272° West 363 418 16,100 1,320 Climbing Cleveland Center
08:41AM 42.4339 -84.4772 273° West 367 422 17,500 1,260 Climbing Chicago Center
08:42AM 42.4381 -84.6175 272° West 372 428 18,800 1,380 Climbing Chicago Center
08:43AM 42.4408 -84.7914 271° West 382 440 20,400 1,260 Climbing Chicago Center
08:44AM 42.4456 -84.9392 273° West 389 448 21,500 1,020 Climbing Chicago Center
08:45AM 42.4503 -85.0908 272° West 400 460 22,500 960 Climbing Chicago Center
08:46AM 42.4519 -85.2475 271° West 413 475 23,500 720 Climbing Chicago Center
08:47AM 42.4553 -85.4044 272° West 417 480 24,000 240 Climbing Chicago Center
08:48AM 42.4578 -85.5578 271° West 410 472 24,000 -180 Level Chicago Center
08:49AM 42.4603 -85.7075 271° West 399 459 23,700 -960 Descending Chicago Center
08:50AM 42.4625 -85.8611 271° West 405 466 22,100 -1,620 Descending Chicago Center
08:51AM 42.4647 -86.0100 271° West 396 456 20,400 -1,020 Descending Chicago Center
08:52AM 42.4653 -86.1922 270° West 401 461 20,000 -240 Descending Chicago Center
08:53AM 42.4633 -86.3481 269° West 411 473 20,000 -120 Level Chicago Center
08:54AM 42.4622 -86.5050 270° West 415 478 19,800 -660 Descending Chicago Center
08:55AM 42.4603 -86.6592 269° West 411 473 18,700 -1,020 Descending Chicago Center
08:56AM 42.4614 -86.8086 271° West 407 468 17,700 -1,200 Descending Chicago Center
08:57AM 42.4581 -86.9606 268° West 398 458 16,300 -1,440 Descending Chicago Center
08:58AM 42.4533 -87.1092 268° West 395 455 14,800 -1,500 Descending Chicago Center
09:00AM 42.4094 -87.2753 250° West 393 452 13,300 -2,220 Descending Chicago Center
09:01AM 42.3750 -87.4044 250° West 387 445 10,300 -1,620 Descending Chicago Center
09:02AM 42.3342 -87.5356 247° West 383 441 10,000 -480 Descending Chicago Center
09:03AM 42.2631 -87.6142 219° Southwest 333 383 9,400 -1,320 Descending Chicago Center
09:04AM 42.1836 -87.6986 218° Southwest 306 352 7,300 -1,200 Descending Chicago Center
09:05AM 42.1197 -87.7664 218° Southwest 296 341 7,000 -180 Descending Chicago Center
09:06AM 42.0922 -87.8658 250° West 298 343 7,000  Level Chicago Center
09:07AM 42.0903 -87.9706 269° West 281 323 7,000  Level Chicago Center
09:08AM 42.0908 -88.0644 270° West 261 300 7,000 -840 Level Chicago Center
09:09AM 42.0631 -88.1669 250° West 245 282 5,300 -1,560 Descending Chicago Center
09:10AM 42.0075 -88.1725 184° South 241 277 3,800 -1,140 Descending Chicago Center
09:11AM 42.0000 -88.1000 98° East 208 239 3,000 -840 Descending Chicago TRACON